Stillwell, Georgia
Current Conditions -  °F | °C
As of 1:35 PM on Sunday 23 Nov 2014 (Local Time) from KJYL Reporting Station
Moderate Rain Moderate Rain  
Wind Chill: 65°   Ceiling: 500
Heat Index: 65°   Visibility: 4mi
Dew Point: 64°   Wind: 3mph
Humidity: 98%   Direction: 190°S
Pressure: 29.91"   Gusts: NA
Location:  32.4496°N, 81.3721°W
Report Text: KJYL 231835Z AUTO 19003KT 4SM RA OVC005 18/18 A2991 RMK AO2 LTG DSNT SE T01820178
Loading
Personal Weather Stations






























Interactive Weather Map New forecast layout! Learn more

10-Day Weather Forecast

Advertisements
Track Severe Weather on mobile